createdAt,value
2022-11-30T00:01:51.781Z,503.50
2022-11-30T00:04:21.291Z,497.48
2022-11-30T00:06:50.730Z,503.98
2022-11-30T00:09:20.518Z,538.78
2022-11-30T00:11:50.205Z,543.75
2022-11-30T00:14:21.222Z,530.78
2022-11-30T00:16:51.108Z,532.13
2022-11-30T00:19:20.528Z,526.67
2022-11-30T00:21:50.257Z,522.03
2022-11-30T00:24:19.845Z,505.85
2022-11-30T00:26:50.653Z,503.95
2022-11-30T00:29:20.401Z,515.15
2022-11-30T00:31:49.875Z,499.02
2022-11-30T00:34:19.199Z,509.75
2022-11-30T00:36:51.320Z,511.10
2022-11-30T00:39:21.071Z,524.13
2022-11-30T00:41:50.717Z,513.40
2022-11-30T00:44:20.454Z,532.35
2022-11-30T00:46:49.830Z,541.83
2022-11-30T00:49:19.428Z,545.45
2022-11-30T00:51:48.813Z,548.33
2022-11-30T00:54:20.098Z,521.90
2022-11-30T00:56:49.770Z,518.92
2022-11-30T00:59:19.781Z,543.47
2022-11-30T01:01:49.327Z,549.58
2022-11-30T01:04:19.025Z,552.90
2022-11-30T01:06:48.928Z,557.95
2022-11-30T01:09:18.383Z,534.38
2022-11-30T01:11:48.877Z,567.50
2022-11-30T01:14:18.246Z,551.03
2022-11-30T01:16:50.837Z,562.40
2022-11-30T01:19:24.217Z,552.10
2022-11-30T01:21:53.853Z,571.25
2022-11-30T01:24:24.562Z,561.58
2022-11-30T01:26:54.294Z,538.05
2022-11-30T01:29:23.849Z,557.05
2022-11-30T01:31:53.926Z,574.67
2022-11-30T01:34:24.007Z,619.45
2022-11-30T01:36:53.738Z,639.85
2022-11-30T01:39:23.578Z,647.28
2022-11-30T01:41:54.809Z,663.60
2022-11-30T01:44:28.043Z,644.55
2022-11-30T01:47:10.168Z,626.10
2022-11-30T01:49:45.904Z,661.45
2022-11-30T01:52:34.271Z,710.03
2022-11-30T01:55:18.055Z,687.25
2022-11-30T01:58:12.464Z,666.60
2022-11-30T02:00:45.730Z,692.90
2022-11-30T02:03:27.513Z,689.40
2022-11-30T02:05:56.907Z,682.67
2022-11-30T02:08:27.123Z,689.47
2022-11-30T02:11:01.714Z,688.47
2022-11-30T02:13:37.911Z,668.78
2022-11-30T02:16:16.439Z,646.85
2022-11-30T02:19:01.035Z,638.22
2022-11-30T02:21:45.879Z,661.90
2022-11-30T02:24:36.783Z,737.60
2022-11-30T02:27:26.270Z,714.28
2022-11-30T02:30:18.562Z,683.70
2022-11-30T02:32:53.925Z,701.97
2022-11-30T02:35:29.087Z,751.17
2022-11-30T02:38:02.691Z,812.70
2022-11-30T02:40:32.210Z,790.50
2022-11-30T02:43:06.538Z,687.20
2022-11-30T02:46:03.086Z,718.88
2022-11-30T02:48:58.639Z,779.38
2022-11-30T02:51:31.379Z,674.13
2022-11-30T02:54:04.042Z,666.55
2022-11-30T02:56:34.930Z,676.90
2022-11-30T02:59:05.288Z,700.42
2022-11-30T03:01:34.835Z,742.38
2022-11-30T03:04:04.847Z,750.72
2022-11-30T03:06:34.298Z,750.05
2022-11-30T03:09:05.175Z,730.72
2022-11-30T03:11:35.716Z,705.33
2022-11-30T03:14:06.127Z,762.47
2022-11-30T03:16:35.810Z,802.40
2022-11-30T03:19:08.336Z,763.70
2022-11-30T03:21:40.007Z,752.42
2022-11-30T03:24:09.972Z,786.70
2022-11-30T03:26:39.996Z,787.42
2022-11-30T03:29:09.538Z,812.85
2022-11-30T03:31:39.156Z,809.10
2022-11-30T03:34:08.779Z,834.97
2022-11-30T03:36:38.765Z,845.45
2022-11-30T03:39:08.628Z,803.97
2022-11-30T03:41:38.876Z,777.47
2022-11-30T03:44:08.374Z,756.90
2022-11-30T03:46:39.322Z,741.25
2022-11-30T03:49:09.121Z,763.30
2022-11-30T03:51:40.970Z,771.67
2022-11-30T03:54:10.349Z,777.23
2022-11-30T03:56:39.820Z,878.67
2022-11-30T03:59:09.833Z,811.38
2022-11-30T04:01:41.984Z,791.58
2022-11-30T04:04:16.588Z,798.70
2022-11-30T04:06:46.123Z,771.92
2022-11-30T04:09:15.725Z,801.55
2022-11-30T04:11:45.407Z,763.53
2022-11-30T04:14:16.930Z,755.20
2022-11-30T04:16:46.633Z,756.08
2022-11-30T04:19:16.022Z,730.28
2022-11-30T04:21:47.099Z,715.17
2022-11-30T04:24:16.549Z,726.88
2022-11-30T04:26:50.875Z,717.95
2022-11-30T04:29:20.562Z,699.13
2022-11-30T04:31:50.449Z,707.05
2022-11-30T04:34:19.725Z,713.70
2022-11-30T04:36:54.845Z,749.22
2022-11-30T04:39:26.965Z,738.55
2022-11-30T04:41:56.754Z,729.58
2022-11-30T04:44:26.204Z,733.55
2022-11-30T04:46:58.585Z,711.97
2022-11-30T04:49:28.109Z,743.83
2022-11-30T04:51:57.532Z,741.15
2022-11-30T04:54:28.439Z,693.67
2022-11-30T04:56:58.215Z,718.50
2022-11-30T04:59:27.927Z,705.00
2022-11-30T05:01:57.772Z,696.88
2022-11-30T05:04:27.196Z,690.67
2022-11-30T05:06:57.221Z,680.30
2022-11-30T05:09:27.148Z,671.08
2022-11-30T05:11:56.632Z,679.15
2022-11-30T05:14:26.048Z,677.35
2022-11-30T05:16:57.798Z,674.92
2022-11-30T05:19:29.111Z,675.47
2022-11-30T05:22:01.377Z,664.80
2022-11-30T05:24:31.397Z,653.65
2022-11-30T05:27:07.718Z,640.55
2022-11-30T05:29:40.862Z,636.92
2022-11-30T05:32:10.484Z,622.75
2022-11-30T05:34:50.053Z,630.10
2022-11-30T05:37:25.766Z,585.10
2022-11-30T05:39:55.929Z,593.92
2022-11-30T05:42:25.799Z,602.05
2022-11-30T05:44:55.806Z,581.53
2022-11-30T05:47:25.173Z,561.42
2022-11-30T05:49:54.809Z,561.67
2022-11-30T05:52:25.316Z,554.83
2022-11-30T05:54:58.331Z,549.83
2022-11-30T05:57:27.799Z,539.00
2022-11-30T05:59:57.539Z,512.17
2022-11-30T06:02:28.507Z,549.47
2022-11-30T06:04:58.810Z,551.88
2022-11-30T06:07:28.933Z,562.10
2022-11-30T06:09:58.467Z,574.80
2022-11-30T06:12:28.649Z,584.10
2022-11-30T06:14:58.329Z,597.58
2022-11-30T06:17:28.109Z,615.25
2022-11-30T06:19:57.664Z,663.97
2022-11-30T06:22:29.780Z,683.47
2022-11-30T06:24:59.710Z,722.83
2022-11-30T06:27:33.136Z,699.83
2022-11-30T06:30:03.176Z,632.85
2022-11-30T06:32:32.975Z,572.05
2022-11-30T06:35:02.552Z,556.08
2022-11-30T06:37:35.330Z,501.48
2022-11-30T06:40:06.907Z,445.10
2022-11-30T06:42:38.456Z,412.65
2022-11-30T06:45:10.627Z,311.50
2022-11-30T06:47:40.737Z,225.13
2022-11-30T06:50:10.969Z,227.65
2022-11-30T06:52:41.054Z,271.45
2022-11-30T06:55:11.232Z,197.77
2022-11-30T06:57:40.956Z,234.23
2022-11-30T07:00:15.120Z,183.13
2022-11-30T07:02:45.549Z,217.55
2022-11-30T07:05:15.749Z,190.55
2022-11-30T07:07:45.902Z,182.13
2022-11-30T07:10:20.054Z,119.60
2022-11-30T07:12:51.879Z,128.43
2022-11-30T07:15:21.489Z,107.22
2022-11-30T07:17:52.523Z,91.93
2022-11-30T07:20:22.418Z,96.90
2022-11-30T07:22:52.027Z,121.00
2022-11-30T07:25:40.234Z,124.55
2022-11-30T07:28:10.002Z,106.20
2022-11-30T07:30:41.158Z,123.47
2022-11-30T07:33:10.971Z,122.82
2022-11-30T07:35:42.817Z,105.93
2022-11-30T07:38:15.739Z,125.25
2022-11-30T07:40:45.665Z,160.48
2022-11-30T07:43:18.706Z,114.95
2022-11-30T07:45:56.560Z,100.82
2022-11-30T07:48:26.541Z,90.05
2022-11-30T07:50:56.354Z,96.22
2022-11-30T07:53:27.410Z,83.15
2022-11-30T07:56:04.353Z,104.40
2022-11-30T07:58:34.202Z,148.45
2022-11-30T08:01:07.019Z,115.03
2022-11-30T08:03:38.152Z,86.10
2022-11-30T08:06:24.624Z,104.57
2022-11-30T08:08:58.143Z,92.10
2022-11-30T08:11:36.325Z,94.88
2022-11-30T08:14:08.223Z,117.40
2022-11-30T08:16:39.548Z,152.20
2022-11-30T08:19:09.368Z,126.55
2022-11-30T08:21:39.889Z,163.57
2022-11-30T08:24:17.104Z,97.03
2022-11-30T08:26:49.115Z,97.85
2022-11-30T08:29:18.673Z,76.78
2022-11-30T08:31:48.859Z,81.63
2022-11-30T08:34:18.285Z,92.70
2022-11-30T08:36:51.774Z,99.63
2022-11-30T08:39:23.398Z,121.65
2022-11-30T08:41:54.351Z,108.60
2022-11-30T08:44:25.506Z,79.45
2022-11-30T08:46:55.717Z,84.18
2022-11-30T08:49:25.880Z,80.05
2022-11-30T08:54:52.706Z,86.05
2022-11-30T08:57:23.468Z,93.22
2022-11-30T08:59:54.452Z,93.18
2022-11-30T09:02:28.030Z,78.07
2022-11-30T09:04:59.340Z,88.28
2022-11-30T09:07:28.837Z,88.38
2022-11-30T09:09:58.261Z,105.22
2022-11-30T09:12:30.663Z,108.63
2022-11-30T09:15:00.402Z,105.10
2022-11-30T09:17:30.671Z,97.10
2022-11-30T09:20:00.095Z,112.30
2022-11-30T09:22:32.988Z,115.30
2022-11-30T09:25:02.620Z,103.25
2022-11-30T09:27:35.780Z,90.88
2022-11-30T09:30:06.084Z,96.05
2022-11-30T09:32:36.170Z,94.60
2022-11-30T09:35:12.431Z,104.97
2022-11-30T09:37:42.517Z,104.43
2022-11-30T09:40:15.562Z,83.13
2022-11-30T09:42:50.851Z,85.82
2022-11-30T09:45:33.225Z,89.20
2022-11-30T09:48:34.207Z,87.53
2022-11-30T09:51:13.437Z,81.15
2022-11-30T09:54:09.002Z,67.50
2022-11-30T09:56:41.713Z,82.25
2022-11-30T09:59:34.307Z,81.72
2022-11-30T10:02:17.534Z,104.35
2022-11-30T10:04:50.957Z,83.13
2022-11-30T10:07:45.377Z,88.75
2022-11-30T10:11:01.730Z,88.03
2022-11-30T10:13:44.260Z,85.65
2022-11-30T10:19:19.168Z,100.18
2022-11-30T10:22:24.898Z,97.70
2022-11-30T10:25:11.871Z,118.13
2022-11-30T10:28:38.616Z,131.43
2022-11-30T10:31:03.557Z,109.60
2022-11-30T10:33:44.638Z,104.00
2022-11-30T10:36:55.084Z,111.25
2022-11-30T10:39:36.131Z,92.22
2022-11-30T10:42:20.401Z,97.38
2022-11-30T10:45:03.066Z,109.00
2022-11-30T10:47:38.137Z,114.20
2022-11-30T10:50:08.820Z,96.65
2022-11-30T10:52:46.536Z,104.25
2022-11-30T10:55:21.137Z,110.35
2022-11-30T10:57:54.454Z,94.70
2022-11-30T11:00:24.301Z,130.27
2022-11-30T11:02:54.516Z,107.22
2022-11-30T11:05:30.160Z,121.25
2022-11-30T11:08:20.133Z,142.73
2022-11-30T11:10:53.188Z,129.98
2022-11-30T11:13:42.642Z,105.55
2022-11-30T11:16:15.642Z,124.38
2022-11-30T11:19:23.972Z,138.15
2022-11-30T11:21:55.270Z,122.45
2022-11-30T11:24:30.597Z,140.77
2022-11-30T11:27:02.068Z,145.70
2022-11-30T11:29:37.882Z,140.95
2022-11-30T11:32:08.864Z,143.10
2022-11-30T11:34:39.680Z,154.40
2022-11-30T11:37:15.089Z,124.53
2022-11-30T11:39:47.938Z,126.43
2022-11-30T11:42:22.797Z,128.93
2022-11-30T11:44:56.790Z,127.85
2022-11-30T11:47:42.054Z,107.68
2022-11-30T11:50:58.230Z,114.93
2022-11-30T11:53:53.652Z,120.22
2022-11-30T11:56:41.435Z,133.20
2022-11-30T11:59:40.851Z,135.05
2022-11-30T12:02:14.118Z,145.18
2022-11-30T12:05:19.955Z,134.48
2022-11-30T12:08:14.413Z,127.50
2022-11-30T12:11:16.028Z,151.57
2022-11-30T12:13:48.729Z,149.20
2022-11-30T12:16:48.109Z,178.88
2022-11-30T12:19:24.266Z,145.55
2022-11-30T12:22:27.688Z,184.00
2022-11-30T12:25:14.536Z,214.15
2022-11-30T12:28:18.991Z,207.23
2022-11-30T12:31:01.697Z,191.75
2022-11-30T12:34:14.041Z,235.52
2022-11-30T12:36:58.464Z,230.65
2022-11-30T12:39:55.303Z,212.45
2022-11-30T12:42:43.639Z,221.52
2022-11-30T12:45:31.758Z,183.80
2022-11-30T12:48:31.355Z,236.50
2022-11-30T12:51:18.234Z,216.95
2022-11-30T12:53:55.099Z,220.15
2022-11-30T12:56:59.911Z,179.35
2022-11-30T12:59:45.276Z,227.00
2022-11-30T13:02:45.285Z,243.70
2022-11-30T13:05:24.071Z,247.90
2022-11-30T13:08:14.055Z,237.63
2022-11-30T13:10:56.058Z,236.88
2022-11-30T13:13:33.698Z,263.63
2022-11-30T13:16:07.474Z,244.50
2022-11-30T13:18:38.465Z,265.15
2022-11-30T13:21:18.944Z,243.57
2022-11-30T13:24:03.761Z,262.52
2022-11-30T13:26:47.749Z,251.25
2022-11-30T13:29:33.661Z,240.65
2022-11-30T13:32:49.030Z,257.65
2022-11-30T13:35:31.991Z,245.75
2022-11-30T13:41:10.180Z,251.75
2022-11-30T13:46:24.916Z,254.82
2022-11-30T13:49:34.678Z,252.13
2022-11-30T13:52:22.604Z,262.23
2022-11-30T13:54:59.247Z,249.85
2022-11-30T13:57:33.893Z,240.25
2022-11-30T14:00:28.040Z,256.63
2022-11-30T14:03:17.119Z,245.65
2022-11-30T14:05:48.033Z,271.38
2022-11-30T14:08:19.878Z,259.38
2022-11-30T14:10:56.051Z,262.85
2022-11-30T14:13:33.039Z,266.52
2022-11-30T14:16:04.479Z,284.30
2022-11-30T14:18:47.135Z,260.17
2022-11-30T14:21:34.563Z,269.20
2022-11-30T14:24:20.982Z,270.83
2022-11-30T14:27:01.541Z,281.15
2022-11-30T14:29:39.236Z,261.27
2022-11-30T14:32:26.494Z,235.95
2022-11-30T14:35:10.050Z,274.38
2022-11-30T14:37:56.237Z,273.85
2022-11-30T14:40:31.394Z,242.05
2022-11-30T14:43:05.417Z,238.38
2022-11-30T14:45:36.144Z,222.02
2022-11-30T14:48:16.933Z,242.15
2022-11-30T14:50:52.278Z,222.13
2022-11-30T14:53:36.618Z,230.18
2022-11-30T14:56:53.641Z,238.38
2022-11-30T14:59:57.123Z,238.68
2022-11-30T15:02:39.824Z,281.58
2022-11-30T15:05:18.438Z,262.23
2022-11-30T15:07:48.676Z,252.88
2022-11-30T15:10:34.048Z,265.13
2022-11-30T15:13:04.925Z,277.95
2022-11-30T15:15:38.782Z,291.05
2022-11-30T15:18:19.655Z,282.00
2022-11-30T15:21:03.342Z,277.90
2022-11-30T15:23:33.033Z,265.05
2022-11-30T15:26:19.415Z,290.85
2022-11-30T15:28:59.210Z,279.63
2022-11-30T15:31:39.547Z,284.75
2022-11-30T15:34:33.080Z,294.50
2022-11-30T15:37:03.076Z,288.15
2022-11-30T15:39:33.744Z,276.05
2022-11-30T15:42:05.904Z,297.55
2022-11-30T15:44:42.647Z,303.35
2022-11-30T15:47:40.738Z,275.42
2022-11-30T15:50:31.171Z,287.23
2022-11-30T15:53:22.423Z,253.55
2022-11-30T15:55:55.149Z,272.10
2022-11-30T15:58:31.588Z,296.00
2022-11-30T16:01:01.348Z,265.73
2022-11-30T16:03:31.405Z,260.25
2022-11-30T16:06:03.651Z,259.42
2022-11-30T16:08:33.902Z,262.27
2022-11-30T16:11:07.655Z,260.70
2022-11-30T16:13:39.189Z,255.90
2022-11-30T16:16:29.314Z,263.67
2022-11-30T16:18:59.045Z,242.00
2022-11-30T16:21:28.755Z,224.13
2022-11-30T16:23:58.102Z,272.10
2022-11-30T16:26:49.811Z,224.98
2022-11-30T16:29:20.395Z,250.35
2022-11-30T16:31:50.265Z,227.63
2022-11-30T16:34:19.953Z,247.57
2022-11-30T16:36:49.594Z,228.77
2022-11-30T16:39:19.133Z,239.63
2022-11-30T16:41:48.613Z,235.68
2022-11-30T16:44:18.157Z,241.10
2022-11-30T16:46:50.311Z,243.20
2022-11-30T16:49:20.404Z,253.18
2022-11-30T16:51:50.000Z,242.98
2022-11-30T16:54:20.803Z,240.30
2022-11-30T16:56:50.328Z,266.23
2022-11-30T16:59:20.223Z,248.73
2022-11-30T17:01:54.874Z,276.40
2022-11-30T17:04:27.569Z,233.30
2022-11-30T17:07:02.222Z,253.27
2022-11-30T17:09:35.612Z,298.00
2022-11-30T17:14:36.151Z,262.15
2022-11-30T17:17:05.758Z,310.23
2022-11-30T17:19:35.546Z,292.10
2022-11-30T17:22:05.358Z,287.60
2022-11-30T17:24:35.702Z,280.15
2022-11-30T17:27:06.894Z,305.80
2022-11-30T17:29:38.177Z,379.77
2022-11-30T17:32:07.822Z,340.90
2022-11-30T17:34:37.432Z,291.08
2022-11-30T17:37:07.425Z,285.83
2022-11-30T17:39:37.222Z,269.23
2022-11-30T17:42:07.325Z,268.60
2022-11-30T17:44:37.373Z,271.85
2022-11-30T17:47:06.950Z,259.85
2022-11-30T17:49:38.264Z,283.85
2022-11-30T17:52:08.123Z,396.65
2022-11-30T17:54:37.562Z,446.33
2022-11-30T17:57:07.271Z,367.90
2022-11-30T17:59:36.730Z,317.77
2022-11-30T18:02:06.496Z,292.20
2022-11-30T18:04:37.297Z,281.42
2022-11-30T18:07:07.547Z,263.52
2022-11-30T18:09:40.966Z,259.80
2022-11-30T18:12:13.963Z,267.88
2022-11-30T18:14:43.487Z,264.13
2022-11-30T18:17:12.810Z,239.63
2022-11-30T18:19:42.832Z,418.85
2022-11-30T18:22:13.626Z,375.08
2022-11-30T18:24:43.833Z,376.25
2022-11-30T18:27:13.569Z,356.23
2022-11-30T18:29:43.610Z,306.58
2022-11-30T18:32:13.353Z,290.77
2022-11-30T18:34:42.937Z,263.00
2022-11-30T18:37:12.463Z,269.85
2022-11-30T18:39:41.982Z,274.25
2022-11-30T18:42:12.608Z,270.85
2022-11-30T18:44:42.739Z,260.65
2022-11-30T18:47:12.532Z,255.48
2022-11-30T18:49:41.951Z,232.68
2022-11-30T18:52:12.061Z,233.00
2022-11-30T18:54:41.454Z,237.82
2022-11-30T18:57:10.739Z,224.40
2022-11-30T18:59:41.356Z,232.40
2022-11-30T19:02:11.077Z,223.40
2022-11-30T19:04:40.627Z,229.20
2022-11-30T19:07:10.777Z,222.80
2022-11-30T19:09:40.043Z,229.63
2022-11-30T19:12:09.644Z,218.77
2022-11-30T19:14:39.157Z,233.70
2022-11-30T19:17:08.859Z,215.43
2022-11-30T19:19:39.509Z,196.40
2022-11-30T19:22:09.529Z,222.10
2022-11-30T19:24:38.983Z,226.27
2022-11-30T19:27:08.593Z,210.85
2022-11-30T19:29:38.130Z,200.63
2022-11-30T19:32:08.238Z,196.63
2022-11-30T19:34:39.357Z,222.80
2022-11-30T19:37:09.429Z,219.70
2022-11-30T19:39:39.846Z,222.82
2022-11-30T19:42:09.356Z,211.65
2022-11-30T19:44:39.795Z,225.88
2022-11-30T19:47:09.230Z,254.60
2022-11-30T19:49:42.876Z,218.80
2022-11-30T19:52:12.860Z,215.90
2022-11-30T19:54:43.991Z,207.63
2022-11-30T19:57:13.577Z,211.02
2022-11-30T19:59:42.859Z,215.70
2022-11-30T20:02:13.531Z,217.88
2022-11-30T20:04:43.309Z,211.75
2022-11-30T20:07:13.816Z,220.70
2022-11-30T20:09:47.148Z,229.00
2022-11-30T20:12:16.954Z,233.95
2022-11-30T20:14:53.667Z,227.82
2022-11-30T20:17:24.206Z,218.10
2022-11-30T20:19:56.488Z,223.80
2022-11-30T20:22:26.008Z,206.93
2022-11-30T20:24:56.148Z,235.93
2022-11-30T20:27:26.219Z,215.02
2022-11-30T20:29:57.319Z,207.13
2022-11-30T20:32:27.816Z,223.40
2022-11-30T20:34:58.959Z,226.27
2022-11-30T20:37:28.400Z,204.05
2022-11-30T20:39:59.594Z,219.95
2022-11-30T20:42:32.345Z,196.65
2022-11-30T20:47:34.959Z,218.82
2022-11-30T20:50:10.580Z,228.43
2022-11-30T20:52:40.231Z,220.20
2022-11-30T20:55:10.841Z,221.27
2022-11-30T20:57:40.107Z,223.95
2022-11-30T21:00:13.342Z,202.60
2022-11-30T21:02:43.047Z,217.77
2022-11-30T21:05:13.149Z,223.75
2022-11-30T21:07:43.006Z,205.10
2022-11-30T21:10:13.430Z,223.80
2022-11-30T21:12:43.454Z,210.18
2022-11-30T21:15:13.466Z,218.18
2022-11-30T21:17:42.826Z,232.32
2022-11-30T21:20:12.967Z,234.15
2022-11-30T21:22:42.457Z,230.00
2022-11-30T21:25:12.099Z,228.48
2022-11-30T21:27:41.901Z,228.98
2022-11-30T21:30:12.718Z,242.27
2022-11-30T21:32:42.007Z,246.57
2022-11-30T21:35:12.169Z,224.30
2022-11-30T21:37:41.951Z,237.20
2022-11-30T21:40:12.043Z,218.07
2022-11-30T21:42:41.621Z,222.80
2022-11-30T21:45:12.049Z,236.65
2022-11-30T21:47:41.969Z,246.70
2022-11-30T21:50:11.826Z,244.25
2022-11-30T21:52:41.424Z,254.23
2022-11-30T21:55:11.337Z,242.63
2022-11-30T21:57:41.532Z,253.77
2022-11-30T22:00:11.740Z,262.25
2022-11-30T22:02:41.554Z,257.33
2022-11-30T22:05:10.995Z,239.95
2022-11-30T22:07:40.425Z,247.77
2022-11-30T22:10:10.532Z,237.45
2022-11-30T22:12:39.911Z,289.23
2022-11-30T22:15:09.993Z,317.98
2022-11-30T22:17:39.759Z,316.55
2022-11-30T22:20:09.719Z,323.83
2022-11-30T22:22:41.908Z,361.25
2022-11-30T22:25:11.717Z,377.67
2022-11-30T22:27:41.366Z,412.85
2022-11-30T22:30:11.344Z,424.73
2022-11-30T22:32:43.450Z,446.92
2022-11-30T22:35:13.291Z,442.38
2022-11-30T22:37:42.734Z,490.52
2022-11-30T22:40:12.997Z,497.70
2022-11-30T22:42:42.766Z,486.92
2022-11-30T22:45:12.377Z,464.38
2022-11-30T22:47:41.844Z,470.55
2022-11-30T22:50:11.775Z,489.88
2022-11-30T22:53:02.033Z,533.90
2022-11-30T22:55:31.180Z,494.33
2022-11-30T22:58:01.364Z,518.85
2022-11-30T23:00:30.866Z,493.00
2022-11-30T23:03:00.358Z,471.80
2022-11-30T23:05:30.020Z,494.02
2022-11-30T23:07:59.472Z,538.80
2022-11-30T23:10:28.952Z,535.03
2022-11-30T23:13:00.067Z,540.20
2022-11-30T23:15:30.123Z,530.65
2022-11-30T23:17:59.588Z,522.08
2022-11-30T23:20:29.011Z,552.97
2022-11-30T23:22:58.486Z,538.97
2022-11-30T23:25:27.877Z,526.20
2022-11-30T23:27:57.163Z,528.22
2022-11-30T23:30:26.922Z,557.15
2022-11-30T23:32:57.390Z,531.00
2022-11-30T23:35:27.241Z,523.65
2022-11-30T23:37:56.770Z,534.22
2022-11-30T23:40:27.038Z,531.90
2022-11-30T23:42:56.753Z,534.38
2022-11-30T23:45:26.383Z,518.38
2022-11-30T23:47:56.037Z,505.60
2022-11-30T23:50:26.249Z,517.63
2022-11-30T23:52:55.770Z,506.65
2022-11-30T23:55:25.164Z,523.30
2022-11-30T23:57:54.767Z,530.55
